Friday, June 22, 2018, 3:12 AM EDT
Back to Local

KLOM, Philadelphia, Wings Field Airport

Location: Blue Bell, PA, United States Lat: 40.138
Local Time: 3:12 AM EDT ( 7:12 GMT) Lon: -75.265
Time Zone: US/Eastern Elev: 301 ft

Show me the last for .
Show Decoded

2018-06-22 02:35 METAR KLOM 220635Z AUTO 00000KT 10SM CLR 18/18 A2987 RMK AO1 =
2018-06-22 02:15 METAR KLOM 220615Z AUTO 00000KT 10SM CLR 18/18 A2987 RMK AO1 =
2018-06-22 01:55 METAR KLOM 220555Z AUTO 00000KT 10SM CLR 18/18 A2987 RMK AO1 =
2018-06-22 01:35 METAR KLOM 220535Z AUTO 00000KT 10SM CLR 18/17 A2987 RMK AO1 =
2018-06-22 01:15 METAR KLOM 220515Z AUTO 00000KT 10SM CLR 18/17 A2987 RMK AO1 =
2018-06-22 00:55 METAR KLOM 220455Z AUTO 00000KT 10SM CLR 18/17 A2987 RMK AO1 =
2018-06-22 00:35 METAR KLOM 220435Z AUTO 00000KT 10SM CLR 18/17 A2987 RMK AO1 =
2018-06-22 00:15 METAR KLOM 220415Z AUTO 00000KT 10SM CLR 18/17 A2986 RMK AO1 =
2018-06-21 23:55 METAR KLOM 220355Z AUTO 00000KT 10SM CLR 18/17 A2986 RMK AO1 =
2018-06-21 23:35 METAR KLOM 220335Z AUTO 00000KT 10SM CLR 18/16 A2986 RMK AO1 =
2018-06-21 23:15 METAR KLOM 220315Z AUTO 00000KT 10SM CLR 18/16 A2986 RMK AO1 =
2018-06-21 22:55 METAR KLOM 220255Z AUTO 00000KT 10SM CLR 19/16 A2986 RMK AO1 =
2018-06-21 22:35 METAR KLOM 220235Z AUTO 00000KT 10SM CLR 19/16 A2985 RMK AO1 =
2018-06-21 22:15 METAR KLOM 220215Z AUTO 00000KT 10SM CLR 19/17 A2985 RMK AO1 =
2018-06-21 21:55 METAR KLOM 220155Z AUTO 00000KT 10SM CLR 19/16 A2985 RMK AO1 =
2018-06-21 21:35 METAR KLOM 220135Z AUTO 00000KT 10SM CLR 20/17 A2985 RMK AO1 =
2018-06-21 21:15 METAR KLOM 220115Z AUTO 00000KT 10SM CLR 20/17 A2984 RMK AO1 =
2018-06-21 20:55 METAR KLOM 220055Z AUTO 00000KT 10SM CLR 20/17 A2983 RMK AO1 =
2018-06-21 20:35 METAR KLOM 220035Z AUTO 00000KT 10SM CLR 21/17 A2982 RMK AO1 =
2018-06-21 20:15 METAR KLOM 220015Z AUTO 00000KT 10SM CLR 22/17 A2982 RMK AO1 =
2018-06-21 19:55 METAR KLOM 212355Z AUTO 00000KT 10SM CLR 23/17 A2981 RMK AO1 =
2018-06-21 19:35 METAR KLOM 212335Z AUTO 00000KT 10SM CLR 25/16 A2980 RMK AO1 =
2018-06-21 19:15 METAR KLOM 212315Z AUTO 00000KT 10SM CLR 26/15 A2981 RMK AO1 =
2018-06-21 18:55 METAR KLOM 212255Z AUTO 00000KT 10SM CLR 26/13 A2981 RMK AO1 =
2018-06-21 18:35 METAR KLOM 212235Z AUTO 04004KT 10SM CLR 26/13 A2980 RMK AO1 =
2018-06-21 18:15 METAR KLOM 212215Z AUTO 04004KT 10SM CLR 26/14 A2979 RMK AO1 =
2018-06-21 17:55 METAR KLOM 212155Z AUTO 00000KT 10SM CLR 27/12 A2979 RMK AO1 =
2018-06-21 17:35 METAR KLOM 212135Z AUTO 05003KT 10SM CLR 27/13 A2979 RMK AO1 =
2018-06-21 17:15 METAR KLOM 212115Z AUTO 04003KT 10SM CLR 27/13 A2979 RMK AO1 =
2018-06-21 16:55 METAR KLOM 212055Z AUTO 05004KT 10SM CLR 27/14 A2979 RMK AO1 =
2018-06-21 16:35 METAR KLOM 212035Z AUTO 07004KT 10SM CLR 27/12 A2979 RMK AO1 =
2018-06-21 16:15 METAR KLOM 212015Z AUTO 32004KT 10SM CLR 27/13 A2979 RMK AO1 =
2018-06-21 15:55 METAR KLOM 211955Z AUTO 00000KT 10SM CLR 26/15 A2979 RMK AO1 =
2018-06-21 15:35 METAR KLOM 211935Z AUTO 00000KT 10SM CLR 26/14 A2980 RMK AO1 =
2018-06-21 15:15 METAR KLOM 211915Z AUTO 03004KT 10SM SCT043 26/17 A2980 RMK AO1 =
2018-06-21 14:55 METAR KLOM 211855Z AUTO 00000KT 10SM OVC043 25/17 A2980 RMK AO1 =
2018-06-21 14:35 METAR KLOM 211835Z AUTO 00000KT 10SM BKN045 25/17 A2980 RMK AO1 =
2018-06-21 14:15 METAR KLOM 211815Z AUTO 00000KT 10SM BKN041 OVC047 24/17 A2981 RMK AO1 =
2018-06-21 13:55 METAR KLOM 211755Z AUTO 00000KT 10SM SCT037 BKN043 OVC070 24/17 A2981 RMK AO1 =
2018-06-21 13:35 METAR KLOM 211735Z AUTO 08003KT 10SM SCT037 BKN042 BKN090 24/17 A2981 RMK AO1 =
2018-06-21 13:15 METAR KLOM 211715Z AUTO 07004KT 10SM BKN090 24/17 A2981 RMK AO1 =
2018-06-21 12:55 METAR KLOM 211655Z AUTO 00000KT 10SM OVC090 24/17 A2981 RMK AO1 =
2018-06-21 12:35 METAR KLOM 211635Z AUTO 06004KT 10SM SCT029 OVC090 24/17 A2981 RMK AO1 =
2018-06-21 12:15 METAR KLOM 211615Z AUTO 04004KT 10SM SCT029 BKN090 24/17 A2981 RMK AO1 =
2018-06-21 11:55 METAR KLOM 211555Z AUTO 05003KT 10SM BKN090 23/18 A2982 RMK AO1 =
2018-06-21 11:35 METAR KLOM 211535Z AUTO 02003KT 10SM SCT075 BKN080 OVC095 22/18 A2982 RMK AO1 =
2018-06-21 11:15 METAR KLOM 211515Z AUTO 36004KT 10SM SCT080 BKN095 22/18 A2982 RMK AO1 =
2018-06-21 10:55 METAR KLOM 211455Z AUTO 00000KT 10SM SCT023 BKN060 OVC095 21/18 A2982 RMK AO1 =
2018-06-21 10:35 METAR KLOM 211435Z AUTO 00000KT 10SM SCT019 BKN027 OVC060 20/18 A2982 RMK AO1 =
2018-06-21 10:15 METAR KLOM 211415Z AUTO 34004KT 10SM SCT014 BKN021 OVC065 21/18 A2982 RMK AO1 =
2018-06-21 09:55 METAR KLOM 211355Z AUTO 34004KT 10SM SCT012 BKN019 OVC038 20/19 A2982 RMK AO1 =
2018-06-21 09:35 METAR KLOM 211335Z AUTO 00000KT 10SM SCT010 BKN015 OVC070 20/19 A2981 RMK AO1 =
2018-06-21 09:15 METAR KLOM 211315Z AUTO 00000KT 10SM SCT008 BKN013 OVC042 20/19 A2981 RMK AO1 =
2018-06-21 08:55 METAR KLOM 211255Z AUTO 02003KT 10SM BKN008 OVC013 19/19 A2981 RMK AO1 =
2018-06-21 08:35 METAR KLOM 211235Z AUTO 00000KT 10SM OVC008 19/19 A2980 RMK AO1 =
2018-06-21 08:15 METAR KLOM 211215Z AUTO 07003KT 4SM OVC010 18/18 A2979 RMK AO1 =
2018-06-21 07:55 METAR KLOM 211155Z AUTO 00000KT 10SM OVC010 19/19 A2979 RMK AO1 =
2018-06-21 07:35 METAR KLOM 211135Z AUTO 00000KT 7SM SCT008 BKN012 OVC034 18/18 A2979 RMK AO1 =
2018-06-21 07:15 METAR KLOM 211115Z AUTO 00000KT 7SM SCT016 BKN032 OVC040 18/18 A2979 RMK AO1 =
2018-06-21 06:55 METAR KLOM 211055Z AUTO 00000KT 3SM SCT013 SCT019 OVC032 19/18 A2978 RMK AO1 =
2018-06-21 06:35 METAR KLOM 211035Z AUTO 00000KT 10SM OVC034 19/18 A2978 RMK AO1 =
2018-06-21 06:15 METAR KLOM 211015Z AUTO 00000KT 10SM OVC034 20/18 A2978 RMK AO1 =
2018-06-21 05:55 METAR KLOM 210955Z AUTO 00000KT 10SM OVC034 20/18 A2977 RMK AO1 =
2018-06-21 05:35 METAR KLOM 210935Z AUTO 05003KT 10SM OVC034 20/18 A2977 RMK AO1 =
2018-06-21 05:15 METAR KLOM 210915Z AUTO 36003KT 10SM OVC032 20/18 A2976 RMK AO1 =
2018-06-21 04:55 METAR KLOM 210855Z AUTO 00000KT 10SM OVC032 20/18 A2975 RMK AO1 =
2018-06-21 04:35 METAR KLOM 210835Z AUTO 00000KT 10SM OVC032 20/18 A2976 RMK AO1 =
2018-06-21 04:15 METAR KLOM 210815Z AUTO 00000KT 10SM OVC032 20/18 A2975 RMK AO1 =
2018-06-21 03:55 METAR KLOM 210755Z AUTO 00000KT 10SM OVC032 20/18 A2975 RMK AO1 =
2018-06-21 03:35 METAR KLOM 210735Z AUTO 05003KT 10SM BKN032 OVC085 21/18 A2975 RMK AO1 =
2018-06-21 03:15 METAR KLOM 210715Z AUTO 00000KT 10SM SCT032 BKN085 21/18 A2975 RMK AO1 =

Support USWX by starting your Amazon purchase here.